createdAt,value
2023-07-12T00:01:25.522Z,96809.91
2023-07-12T00:03:52.287Z,96836.53
2023-07-12T00:06:19.102Z,96841.38
2023-07-12T00:08:45.692Z,96837.75
2023-07-12T00:11:12.228Z,96833.81
2023-07-12T00:13:38.772Z,96831.66
2023-07-12T00:16:05.407Z,96840.81
2023-07-12T00:18:31.987Z,96829.38
2023-07-12T00:20:58.633Z,96843.81
2023-07-12T00:23:25.248Z,96852.34
2023-07-12T00:25:51.845Z,96864.97
2023-07-12T00:28:18.570Z,96865.94
2023-07-12T00:30:45.257Z,96867.44
2023-07-12T00:33:11.771Z,96876.03
2023-07-12T00:35:38.438Z,96889.53
2023-07-12T00:38:04.934Z,96872.75
2023-07-12T00:40:31.463Z,96821.69
2023-07-12T00:42:58.156Z,96785.00
2023-07-12T00:45:24.681Z,96817.81
2023-07-12T00:47:51.342Z,96821.50
2023-07-12T00:50:17.868Z,96827.81
2023-07-12T00:52:44.475Z,96806.66
2023-07-12T00:55:11.062Z,96780.59
2023-07-12T00:57:37.667Z,96812.13
2023-07-12T01:00:04.228Z,96857.84
2023-07-12T01:02:30.956Z,96851.31
2023-07-12T01:04:57.625Z,96831.94
2023-07-12T01:07:24.176Z,96850.38
2023-07-12T01:09:50.707Z,96768.34
2023-07-12T01:12:17.470Z,96761.28
2023-07-12T01:14:44.057Z,96844.31
2023-07-12T01:17:10.656Z,96824.25
2023-07-12T01:19:37.229Z,96836.19
2023-07-12T01:22:03.735Z,96831.38
2023-07-12T01:24:30.354Z,96821.69
2023-07-12T01:26:58.214Z,96798.25
2023-07-12T01:29:25.986Z,96771.47
2023-07-12T01:31:52.623Z,96764.28
2023-07-12T01:34:19.256Z,96736.31
2023-07-12T01:36:45.880Z,96737.84
2023-07-12T01:39:12.417Z,96750.31
2023-07-12T01:41:38.941Z,96767.41
2023-07-12T01:44:05.456Z,96781.09
2023-07-12T01:46:32.104Z,96792.69
2023-07-12T01:48:58.790Z,96804.75
2023-07-12T01:51:25.419Z,96799.97
2023-07-12T01:53:52.052Z,96813.41
2023-07-12T01:56:18.656Z,96820.56
2023-07-12T01:58:45.238Z,96840.03
2023-07-12T02:01:12.075Z,96851.38
2023-07-12T02:03:39.214Z,96854.34
2023-07-12T02:06:05.828Z,96875.63
2023-07-12T02:08:32.471Z,96920.13
2023-07-12T02:10:59.047Z,96875.38
2023-07-12T02:13:25.612Z,96853.13
2023-07-12T02:15:52.225Z,96850.81
2023-07-12T02:18:18.934Z,96877.91
2023-07-12T02:20:45.625Z,96925.91
2023-07-12T02:23:12.156Z,96945.72
2023-07-12T02:25:38.760Z,96963.75
2023-07-12T02:28:05.209Z,96985.25
2023-07-12T02:30:31.789Z,96999.06
2023-07-12T02:32:58.537Z,97008.25
2023-07-12T02:35:25.238Z,97054.50
2023-07-12T02:37:51.793Z,97045.69
2023-07-12T02:40:18.474Z,97036.13
2023-07-12T02:42:45.152Z,96991.44
2023-07-12T02:45:11.731Z,96960.06
2023-07-12T02:47:38.310Z,96935.50
2023-07-12T02:50:04.809Z,96903.81
2023-07-12T02:52:31.351Z,96879.56
2023-07-12T02:54:57.891Z,96817.38
2023-07-12T02:57:24.613Z,96776.63
2023-07-12T02:59:51.256Z,96832.34
2023-07-12T03:02:20.648Z,96872.94
2023-07-12T03:04:47.245Z,96931.56
2023-07-12T03:07:13.782Z,96982.66
2023-07-12T03:09:40.305Z,96987.59
2023-07-12T03:12:06.900Z,97004.00
2023-07-12T03:14:33.468Z,97020.97
2023-07-12T03:17:00.183Z,97038.78
2023-07-12T03:19:26.896Z,97016.38
2023-07-12T03:21:53.490Z,97030.53
2023-07-12T03:24:20.064Z,97029.03
2023-07-12T03:26:46.650Z,97026.47
2023-07-12T03:29:13.200Z,97034.41
2023-07-12T03:31:39.893Z,97037.09
2023-07-12T03:34:06.600Z,97034.25
2023-07-12T03:36:33.165Z,97045.22
2023-07-12T03:38:59.731Z,97049.03
2023-07-12T03:41:26.275Z,97025.59
2023-07-12T03:43:52.850Z,97009.69
2023-07-12T03:46:19.441Z,97015.19
2023-07-12T03:48:45.984Z,97013.53
2023-07-12T03:51:12.447Z,97028.88
2023-07-12T03:53:38.957Z,97019.75
2023-07-12T03:56:05.539Z,97036.50
2023-07-12T03:58:32.139Z,97040.75
2023-07-12T04:00:58.784Z,97031.59
2023-07-12T04:03:25.578Z,97012.44
2023-07-12T04:05:52.158Z,97006.41
2023-07-12T04:08:18.665Z,97003.78
2023-07-12T04:10:45.266Z,97001.38
2023-07-12T04:13:11.800Z,96993.00
2023-07-12T04:15:38.353Z,97003.97
2023-07-12T04:18:05.038Z,97017.94
2023-07-12T04:20:31.720Z,97022.34
2023-07-12T04:22:58.352Z,97024.03
2023-07-12T04:25:24.934Z,97027.38
2023-07-12T04:27:51.417Z,97030.47
2023-07-12T04:30:17.950Z,97035.63
2023-07-12T04:32:44.604Z,97035.00
2023-07-12T04:35:11.139Z,97038.09
2023-07-12T04:37:37.634Z,97026.44
2023-07-12T04:40:04.142Z,97022.94
2023-07-12T04:42:30.762Z,97033.59
2023-07-12T04:44:57.295Z,97027.38
2023-07-12T04:47:23.864Z,97022.78
2023-07-12T04:49:50.520Z,97024.69
2023-07-12T04:52:17.067Z,97017.28
2023-07-12T04:54:43.679Z,97007.88
2023-07-12T04:57:10.233Z,97006.03
2023-07-12T04:59:36.806Z,97000.25
2023-07-12T05:02:03.332Z,96995.72
2023-07-12T05:04:29.898Z,96986.75
2023-07-12T05:06:56.471Z,96984.16
2023-07-12T05:09:23.096Z,96977.19
2023-07-12T05:11:49.718Z,96972.63
2023-07-12T05:14:16.316Z,96968.63
2023-07-12T05:16:42.852Z,96958.25
2023-07-12T05:19:09.464Z,96946.06
2023-07-12T05:21:36.099Z,96927.88
2023-07-12T05:24:02.703Z,96931.06
2023-07-12T05:26:29.467Z,96937.56
2023-07-12T05:28:56.033Z,96953.38
2023-07-12T05:31:23.817Z,96963.56
2023-07-12T05:33:50.428Z,96977.09
2023-07-12T05:36:16.985Z,96983.34
2023-07-12T05:38:43.574Z,96971.28
2023-07-12T05:41:10.457Z,96970.69
2023-07-12T05:43:37.396Z,96970.06
2023-07-12T05:46:03.891Z,96973.03
2023-07-12T05:48:30.570Z,96965.38
2023-07-12T05:50:57.134Z,96951.19
2023-07-12T05:53:23.653Z,96947.91
2023-07-12T05:55:50.329Z,96943.28
2023-07-12T05:58:16.941Z,96947.25
2023-07-12T06:00:43.546Z,96944.03
2023-07-12T06:03:10.159Z,96944.50
2023-07-12T06:05:36.841Z,96950.44
2023-07-12T06:08:03.440Z,96954.03
2023-07-12T06:10:30.150Z,96954.88
2023-07-12T06:12:56.742Z,96962.63
2023-07-12T06:15:23.270Z,96965.50
2023-07-12T06:17:49.914Z,96960.66
2023-07-12T06:20:16.626Z,96956.53
2023-07-12T06:22:43.270Z,96956.97
2023-07-12T06:25:09.809Z,96945.59
2023-07-12T06:27:36.434Z,96952.31
2023-07-12T06:30:03.062Z,96960.22
2023-07-12T06:32:29.682Z,96944.81
2023-07-12T06:34:56.190Z,96949.38
2023-07-12T06:37:22.786Z,96957.72
2023-07-12T06:39:49.357Z,96960.97
2023-07-12T06:42:18.710Z,96964.56
2023-07-12T06:44:46.500Z,96961.81
2023-07-12T06:47:13.010Z,96963.06
2023-07-12T06:49:39.569Z,96970.84
2023-07-12T06:52:06.216Z,96974.78
2023-07-12T06:54:33.626Z,96978.63
2023-07-12T06:57:00.350Z,96981.38
2023-07-12T06:59:26.878Z,96971.28
2023-07-12T07:01:53.462Z,96972.50
2023-07-12T07:04:20.182Z,96977.84
2023-07-12T07:06:46.851Z,96974.09
2023-07-12T07:09:13.510Z,96995.34
2023-07-12T07:11:40.126Z,97000.56
2023-07-12T07:14:06.775Z,96996.09
2023-07-12T07:16:33.439Z,96995.97
2023-07-12T07:19:00.074Z,97005.69
2023-07-12T07:21:26.804Z,96999.66
2023-07-12T07:23:53.401Z,97002.09
2023-07-12T07:26:20.035Z,97016.38
2023-07-12T07:28:46.539Z,97019.75
2023-07-12T07:31:13.169Z,97012.91
2023-07-12T07:33:39.819Z,97018.06
2023-07-12T07:36:06.678Z,97018.53
2023-07-12T07:38:33.393Z,97021.53
2023-07-12T07:40:59.933Z,97025.22
2023-07-12T07:43:26.530Z,97017.28
2023-07-12T07:45:53.168Z,97026.13
2023-07-12T07:48:19.843Z,97029.78
2023-07-12T07:50:46.352Z,97019.31
2023-07-12T07:53:12.969Z,97014.84
2023-07-12T07:55:39.605Z,97020.25
2023-07-12T07:58:06.188Z,97019.66
2023-07-12T08:00:32.721Z,97018.72
2023-07-12T08:02:59.423Z,97023.59
2023-07-12T08:05:26.134Z,97026.19
2023-07-12T08:07:52.766Z,97025.00
2023-07-12T08:10:19.366Z,97027.47
2023-07-12T08:12:45.941Z,97032.34
2023-07-12T08:15:12.505Z,97033.41
2023-07-12T08:17:39.093Z,97034.03
2023-07-12T08:20:05.683Z,97029.31
2023-07-12T08:22:32.283Z,97014.09
2023-07-12T08:24:58.931Z,96995.84
2023-07-12T08:27:25.532Z,96998.88
2023-07-12T08:29:52.144Z,97007.88
2023-07-12T08:32:18.692Z,97007.97
2023-07-12T08:34:45.230Z,97008.91
2023-07-12T08:37:14.515Z,97006.63
2023-07-12T08:39:41.239Z,96995.84
2023-07-12T08:42:07.830Z,97002.53
2023-07-12T08:44:34.379Z,97015.78
2023-07-12T08:47:00.942Z,97017.00
2023-07-12T08:49:27.576Z,97019.56
2023-07-12T08:51:54.117Z,97022.91
2023-07-12T08:54:20.665Z,97029.28
2023-07-12T08:56:47.190Z,97019.28
2023-07-12T08:59:13.821Z,97026.56
2023-07-12T09:01:40.524Z,97017.44
2023-07-12T09:04:07.084Z,97005.91
2023-07-12T09:06:33.632Z,97005.44
2023-07-12T09:09:00.206Z,97014.38
2023-07-12T09:11:26.734Z,97010.13
2023-07-12T09:13:53.299Z,97009.34
2023-07-12T09:16:19.880Z,97000.06
2023-07-12T09:18:46.518Z,96980.31
2023-07-12T09:21:13.226Z,96979.72
2023-07-12T09:23:39.824Z,96981.81
2023-07-12T09:26:06.383Z,96988.81
2023-07-12T09:28:32.970Z,96979.38
2023-07-12T09:30:59.536Z,96997.97
2023-07-12T09:33:26.098Z,97008.91
2023-07-12T09:35:52.649Z,97013.31
2023-07-12T09:38:19.253Z,97005.59
2023-07-12T09:40:45.836Z,96986.56
2023-07-12T09:43:12.472Z,96952.16
2023-07-12T09:45:41.651Z,96960.25
2023-07-12T09:48:12.434Z,96969.09
2023-07-12T09:50:38.982Z,96986.88
2023-07-12T09:53:05.527Z,96991.91
2023-07-12T09:55:32.059Z,96980.63
2023-07-12T09:57:58.640Z,96982.16
2023-07-12T10:00:25.435Z,96989.44
2023-07-12T10:02:52.114Z,97000.38
2023-07-12T10:05:18.858Z,97001.59
2023-07-12T10:07:45.488Z,96995.81
2023-07-12T10:10:11.992Z,96995.81
2023-07-12T10:12:38.527Z,96991.88
2023-07-12T10:15:05.081Z,96999.34
2023-07-12T10:17:31.777Z,97003.88
2023-07-12T10:19:58.789Z,97000.09
2023-07-12T10:22:25.291Z,96998.72
2023-07-12T10:24:51.872Z,97002.09
2023-07-12T10:27:18.444Z,97001.34
2023-07-12T10:29:45.036Z,97011.53
2023-07-12T10:32:11.758Z,97014.25
2023-07-12T10:34:38.432Z,96996.75
2023-07-12T10:37:04.979Z,96987.94
2023-07-12T10:39:31.586Z,96997.06
2023-07-12T10:41:58.201Z,96998.72
2023-07-12T10:44:24.798Z,97000.09
2023-07-12T10:46:51.436Z,96998.72
2023-07-12T10:49:18.099Z,97005.88
2023-07-12T10:51:46.014Z,96997.66
2023-07-12T10:54:12.791Z,96993.38
2023-07-12T10:56:39.352Z,96984.91
2023-07-12T10:59:05.936Z,96983.06
2023-07-12T11:01:32.560Z,96974.41
2023-07-12T11:03:59.161Z,96964.97
2023-07-12T11:06:25.665Z,96955.94
2023-07-12T11:08:52.271Z,96952.00
2023-07-12T11:11:18.801Z,96946.53
2023-07-12T11:13:45.416Z,96953.97
2023-07-12T11:16:12.000Z,96951.44
2023-07-12T11:18:38.745Z,96957.94
2023-07-12T11:21:05.422Z,96964.81
2023-07-12T11:23:31.981Z,96957.81
2023-07-12T11:25:58.575Z,96955.22
2023-07-12T11:28:25.241Z,96952.47
2023-07-12T11:30:51.908Z,96961.44
2023-07-12T11:33:18.574Z,96951.25
2023-07-12T11:35:45.168Z,96950.78
2023-07-12T11:38:11.848Z,96945.91
2023-07-12T11:40:38.469Z,96949.25
2023-07-12T11:43:05.024Z,96948.91
2023-07-12T11:45:31.633Z,96952.75
2023-07-12T11:47:58.205Z,96958.22
2023-07-12T11:50:24.822Z,96959.44
2023-07-12T11:52:51.504Z,96952.56
2023-07-12T11:55:18.167Z,96945.91
2023-07-12T11:57:44.846Z,96932.19
2023-07-12T12:00:11.455Z,96935.81
2023-07-12T12:02:38.078Z,96932.97
2023-07-12T12:05:04.664Z,96926.34
2023-07-12T12:07:31.275Z,96929.13
2023-07-12T12:09:58.417Z,96936.59
2023-07-12T12:12:25.014Z,96934.28
2023-07-12T12:14:51.618Z,96934.00
2023-07-12T12:17:18.268Z,96928.03
2023-07-12T12:19:45.165Z,96917.13
2023-07-12T12:22:13.182Z,96915.66
2023-07-12T12:24:39.978Z,96912.81
2023-07-12T12:27:18.897Z,96911.06
2023-07-12T12:29:47.110Z,96905.25
2023-07-12T12:32:13.715Z,96906.28
2023-07-12T12:34:40.382Z,96903.72
2023-07-12T12:37:06.985Z,96900.47
2023-07-12T12:39:33.523Z,96902.16
2023-07-12T12:42:00.073Z,96906.47
2023-07-12T12:44:26.724Z,96904.63
2023-07-12T12:54:21.609Z,96899.28
2023-07-12T13:07:03.702Z,96897.38
2023-07-12T13:19:30.333Z,96892.78
2023-07-12T13:21:57.456Z,96899.88
2023-07-12T13:24:24.330Z,96901.94
2023-07-12T13:26:50.993Z,96903.41
2023-07-12T13:29:17.580Z,96899.69
2023-07-12T13:31:44.197Z,96898.25
2023-07-12T13:34:13.898Z,96889.84
2023-07-12T13:36:42.103Z,96888.00
2023-07-12T13:46:36.894Z,96893.63
2023-07-12T13:49:03.498Z,96892.25
2023-07-12T13:51:30.031Z,96901.50
2023-07-12T13:53:56.566Z,96888.78
2023-07-12T14:01:26.921Z,96888.44
2023-07-12T14:03:55.092Z,96896.69
2023-07-12T14:06:44.902Z,96890.28
2023-07-12T14:09:08.232Z,96892.41
2023-07-12T14:11:34.841Z,96894.28
2023-07-12T14:14:01.383Z,96899.25
2023-07-12T14:16:28.017Z,96894.44
2023-07-12T14:18:54.633Z,96893.88
2023-07-12T14:21:21.200Z,96904.22
2023-07-12T14:23:47.791Z,96898.19
2023-07-12T14:26:14.537Z,96900.94
2023-07-12T14:28:41.332Z,96895.91
2023-07-12T14:31:08.384Z,96897.13
2023-07-12T14:33:34.949Z,96897.63
2023-07-12T14:36:01.505Z,96890.16
2023-07-12T14:38:28.235Z,96881.28
2023-07-12T14:40:54.781Z,96886.28
2023-07-12T14:43:21.330Z,96872.66
2023-07-12T14:45:47.929Z,96866.06
2023-07-12T14:48:14.468Z,96862.25
2023-07-12T14:50:41.301Z,96871.38
2023-07-12T14:53:07.863Z,96877.97
2023-07-12T14:55:34.604Z,96878.97
2023-07-12T15:00:30.656Z,96877.78
2023-07-12T15:02:57.343Z,96877.22
2023-07-12T15:05:24.021Z,96882.25
2023-07-12T15:07:50.533Z,96891.56
2023-07-12T15:10:17.150Z,96892.31
2023-07-12T15:12:43.751Z,96903.72
2023-07-12T15:15:10.471Z,96901.88
2023-07-12T15:17:36.995Z,96896.00
2023-07-12T15:20:03.582Z,96894.94
2023-07-12T15:22:30.229Z,96889.44
2023-07-12T15:24:56.824Z,96885.81
2023-07-12T15:27:23.484Z,96893.28
2023-07-12T15:29:50.083Z,96888.19
2023-07-12T15:32:16.613Z,96894.56
2023-07-12T15:34:43.134Z,96906.16
2023-07-12T15:37:09.670Z,96906.66
2023-07-12T15:39:36.402Z,96894.34
2023-07-12T15:42:02.949Z,96877.06
2023-07-12T15:44:29.455Z,96882.88
2023-07-12T15:46:56.076Z,96887.25
2023-07-12T15:49:22.587Z,96890.72
2023-07-12T15:51:49.143Z,96884.94
2023-07-12T15:54:15.711Z,96892.91
2023-07-12T15:56:42.265Z,96893.53
2023-07-12T15:59:08.760Z,96895.06
2023-07-12T16:01:35.376Z,96891.44
2023-07-12T16:04:01.892Z,96884.44
2023-07-12T16:06:28.447Z,96897.63
2023-07-12T16:08:55.089Z,96884.06
2023-07-12T16:11:21.597Z,96882.28
2023-07-12T16:16:18.246Z,96874.78
2023-07-12T16:18:49.741Z,96872.47
2023-07-12T16:21:16.383Z,96864.91
2023-07-12T16:23:42.942Z,96867.28
2023-07-12T16:26:09.708Z,96859.56
2023-07-12T16:28:36.375Z,96856.94
2023-07-12T16:31:03.016Z,96865.16
2023-07-12T16:33:29.642Z,96869.25
2023-07-12T16:35:56.142Z,96878.81
2023-07-12T16:38:22.651Z,96880.00
2023-07-12T16:40:49.226Z,96859.31
2023-07-12T16:43:15.718Z,96858.09
2023-07-12T16:45:42.240Z,96857.84
2023-07-12T16:48:08.748Z,96858.41
2023-07-12T16:50:35.291Z,96850.94
2023-07-12T16:53:02.145Z,96852.00
2023-07-12T16:55:28.687Z,96863.31
2023-07-12T16:57:55.194Z,96860.25
2023-07-12T17:00:21.705Z,96858.88
2023-07-12T17:02:48.382Z,96865.75
2023-07-12T17:05:14.923Z,96871.78
2023-07-12T17:07:41.429Z,96880.44
2023-07-12T17:10:08.313Z,96882.19
2023-07-12T17:12:34.978Z,96880.50
2023-07-12T17:15:01.491Z,96869.47
2023-07-12T17:17:28.199Z,96867.63
2023-07-12T17:19:54.885Z,96872.94
2023-07-12T17:22:21.696Z,96860.94
2023-07-12T17:24:48.361Z,96862.38
2023-07-12T17:27:17.845Z,96857.81
2023-07-12T17:29:44.427Z,96854.00
2023-07-12T17:32:11.099Z,96862.47
2023-07-12T17:34:37.634Z,96870.44
2023-07-12T17:37:04.156Z,96864.66
2023-07-12T17:39:30.655Z,96862.22
2023-07-12T17:41:57.140Z,96867.09
2023-07-12T17:44:23.645Z,96873.78
2023-07-12T17:46:50.172Z,96879.59
2023-07-12T17:49:16.687Z,96878.22
2023-07-12T17:51:43.615Z,96888.75
2023-07-12T17:54:10.127Z,96896.81
2023-07-12T17:56:36.744Z,96901.22
2023-07-12T17:59:03.262Z,96908.25
2023-07-12T18:01:29.808Z,96903.94
2023-07-12T18:03:56.346Z,96915.25
2023-07-12T18:06:22.989Z,96918.72
2023-07-12T18:08:49.521Z,96922.25
2023-07-12T18:11:16.072Z,96926.19
2023-07-12T18:13:42.656Z,96938.66
2023-07-12T18:16:09.429Z,96942.03
2023-07-12T18:18:36.216Z,96942.00
2023-07-12T18:21:02.754Z,96939.28
2023-07-12T18:23:29.263Z,96937.75
2023-07-12T18:25:55.856Z,96961.50
2023-07-12T18:28:22.373Z,96954.47
2023-07-12T18:30:48.936Z,96959.34
2023-07-12T18:33:15.496Z,96952.94
2023-07-12T18:35:42.022Z,96957.84
2023-07-12T18:38:08.520Z,96968.78
2023-07-12T18:40:35.129Z,96975.44
2023-07-12T18:43:01.676Z,96965.00
2023-07-12T18:45:28.283Z,96971.81
2023-07-12T18:47:54.927Z,96984.09
2023-07-12T18:50:21.486Z,96980.31
2023-07-12T18:52:48.038Z,96978.69
2023-07-12T18:55:14.637Z,96980.78
2023-07-12T18:57:41.238Z,96977.88
2023-07-12T19:00:07.796Z,96974.56
2023-07-12T19:02:34.363Z,96967.69
2023-07-12T19:05:00.939Z,96971.63
2023-07-12T19:07:27.437Z,96974.41
2023-07-12T19:09:53.918Z,96970.47
2023-07-12T19:12:20.451Z,96962.97
2023-07-12T19:14:46.984Z,96964.19
2023-07-12T19:17:13.653Z,96966.03
2023-07-12T19:19:40.270Z,96961.16
2023-07-12T19:22:06.991Z,96965.25
2023-07-12T19:24:33.531Z,96967.81
2023-07-12T19:27:04.519Z,96979.22
2023-07-12T19:29:33.824Z,96980.91
2023-07-12T19:32:00.394Z,96997.31
2023-07-12T19:34:26.966Z,97002.78
2023-07-12T19:36:53.537Z,97005.38
2023-07-12T19:39:20.096Z,97010.50
2023-07-12T19:41:46.716Z,97029.00
2023-07-12T19:44:13.279Z,97036.16
2023-07-12T19:46:39.798Z,97027.00
2023-07-12T19:49:06.419Z,97057.91
2023-07-12T19:51:32.948Z,97080.81
2023-07-12T19:53:59.534Z,97061.59
2023-07-12T19:56:26.081Z,97060.38
2023-07-12T19:58:52.736Z,97062.19
2023-07-12T20:01:19.288Z,97063.66
2023-07-12T20:03:45.874Z,97062.22
2023-07-12T20:06:12.825Z,97076.66
2023-07-12T20:08:39.981Z,97072.78
2023-07-12T20:11:06.480Z,97067.75
2023-07-12T20:13:33.012Z,97058.38
2023-07-12T20:15:59.513Z,97056.97
2023-07-12T20:18:25.975Z,97063.81
2023-07-12T20:20:52.524Z,97072.28
2023-07-12T20:23:18.986Z,97083.47
2023-07-12T20:25:45.459Z,97098.75
2023-07-12T20:28:11.952Z,97106.38
2023-07-12T20:30:38.522Z,97094.31
2023-07-12T20:33:05.118Z,97083.13
2023-07-12T20:35:31.640Z,97082.75
2023-07-12T20:37:58.145Z,97093.78
2023-07-12T20:40:24.593Z,97109.78
2023-07-12T20:42:51.274Z,97115.56
2023-07-12T20:45:17.728Z,97105.72
2023-07-12T20:47:44.289Z,97111.69
2023-07-12T20:50:10.808Z,97111.75
2023-07-12T20:52:37.485Z,97112.25
2023-07-12T20:55:04.069Z,97112.72
2023-07-12T20:57:30.534Z,97114.50
2023-07-12T20:59:57.015Z,97124.88
2023-07-12T21:02:23.454Z,97115.06
2023-07-12T21:04:49.957Z,97108.75
2023-07-12T21:07:16.454Z,97106.88
2023-07-12T21:09:43.707Z,97095.59
2023-07-12T21:12:10.286Z,97096.25
2023-07-12T21:14:36.821Z,97091.13
2023-07-12T21:17:03.333Z,97104.06
2023-07-12T21:19:29.896Z,97120.06
2023-07-12T21:21:56.383Z,97122.34
2023-07-12T21:24:22.837Z,97129.00
2023-07-12T21:26:49.358Z,97131.66
2023-07-12T21:29:15.853Z,97131.34
2023-07-12T21:31:42.349Z,97141.16
2023-07-12T21:34:09.017Z,97138.56
2023-07-12T21:36:35.610Z,97144.66
2023-07-12T21:39:02.058Z,97144.38
2023-07-12T21:41:28.531Z,97157.56
2023-07-12T21:43:55.047Z,97156.47
2023-07-12T21:46:21.610Z,97157.91
2023-07-12T21:48:48.091Z,97163.56
2023-07-12T21:51:14.582Z,97162.72
2023-07-12T21:53:41.023Z,97161.16
2023-07-12T21:56:07.542Z,97147.94
2023-07-12T21:58:34.077Z,97143.13
2023-07-12T22:01:00.653Z,97146.31
2023-07-12T22:03:27.272Z,97142.19
2023-07-12T22:05:53.805Z,97144.59
2023-07-12T22:08:20.473Z,97150.25
2023-07-12T22:10:47.013Z,97149.25
2023-07-12T22:13:13.484Z,97148.97
2023-07-12T22:15:40.225Z,97149.72
2023-07-12T22:18:06.893Z,97152.28
2023-07-12T22:20:33.536Z,97147.09
2023-07-12T22:23:00.181Z,97146.03
2023-07-12T22:25:26.836Z,97151.38
2023-07-12T22:27:53.354Z,97146.78
2023-07-12T22:30:19.852Z,97152.56
2023-07-12T22:32:46.410Z,97153.97
2023-07-12T22:35:12.906Z,97156.59
2023-07-12T22:37:39.389Z,97159.13
2023-07-12T22:40:05.896Z,97156.47
2023-07-12T22:42:32.414Z,97162.84
2023-07-12T22:44:58.977Z,97163.91
2023-07-12T22:47:25.654Z,97170.34
2023-07-12T22:49:52.166Z,97166.97
2023-07-12T22:52:18.701Z,97158.13
2023-07-12T22:54:45.275Z,97161.75
2023-07-12T22:57:14.725Z,97169.06
2023-07-12T22:59:41.493Z,97174.69
2023-07-12T23:02:08.091Z,97164.13
2023-07-12T23:04:34.694Z,97166.44
2023-07-12T23:07:01.219Z,97168.50
2023-07-12T23:09:27.771Z,97171.19
2023-07-12T23:11:54.328Z,97171.31
2023-07-12T23:14:20.889Z,97166.31
2023-07-12T23:16:47.421Z,97175.16
2023-07-12T23:19:13.963Z,97175.16
2023-07-12T23:21:40.469Z,97177.25
2023-07-12T23:24:07.041Z,97173.97
2023-07-12T23:26:33.564Z,97174.81
2023-07-12T23:29:00.059Z,97173.84
2023-07-12T23:31:26.662Z,97185.72
2023-07-12T23:33:53.253Z,97191.53
2023-07-12T23:36:19.895Z,97189.34
2023-07-12T23:38:46.448Z,97185.44
2023-07-12T23:41:12.946Z,97187.59
2023-07-12T23:43:39.446Z,97192.84
2023-07-12T23:46:06.206Z,97190.00
2023-07-12T23:48:32.789Z,97194.50
2023-07-12T23:50:59.420Z,97194.81
2023-07-12T23:53:25.958Z,97199.72
2023-07-12T23:55:52.514Z,97190.31
2023-07-12T23:58:19.021Z,97181.94
